createdAt,value
2018-06-06T00:00:44.512Z,0
2018-06-06T00:01:44.474Z,0
2018-06-06T00:02:44.480Z,0
2018-06-06T00:03:44.453Z,0
2018-06-06T00:04:44.178Z,0
2018-06-06T00:05:44.156Z,0
2018-06-06T00:06:44.684Z,0
2018-06-06T00:07:44.667Z,0
2018-06-06T00:08:44.647Z,0
2018-06-06T00:10:16.202Z,0
2018-06-06T00:10:44.356Z,0
2018-06-06T00:11:43.817Z,0
2018-06-06T00:12:44.631Z,0
2018-06-06T00:13:44.320Z,0
2018-06-06T00:14:44.572Z,0
2018-06-06T00:15:44.289Z,0
2018-06-06T00:16:44.285Z,0
2018-06-06T00:17:44.537Z,0
2018-06-06T00:18:44.269Z,0
2018-06-06T00:19:44.501Z,0
2018-06-06T00:20:44.497Z,0
2018-06-06T00:21:43.956Z,0
2018-06-06T00:22:43.950Z,0
2018-06-06T00:23:44.188Z,0
2018-06-06T00:24:43.919Z,0
2018-06-06T00:25:43.909Z,0
2018-06-06T00:26:44.431Z,0
2018-06-06T00:27:43.884Z,0
2018-06-06T00:28:43.593Z,0
2018-06-06T00:29:44.106Z,0
2018-06-06T00:30:44.100Z,0
2018-06-06T00:31:44.086Z,0
2018-06-06T00:32:44.078Z,0
2018-06-06T00:33:43.795Z,0
2018-06-06T00:34:44.312Z,0
2018-06-06T00:35:44.295Z,0
2018-06-06T00:36:44.164Z,0
2018-06-06T00:37:44.003Z,0
2018-06-06T00:38:44.252Z,0
2018-06-06T00:39:44.361Z,0
2018-06-06T00:40:44.269Z,0
2018-06-06T00:41:43.959Z,0
2018-06-06T00:42:44.206Z,0
2018-06-06T00:43:43.925Z,0
2018-06-06T00:44:43.852Z,0
2018-06-06T00:45:43.904Z,0
2018-06-06T00:46:43.626Z,0
2018-06-06T00:47:44.146Z,0
2018-06-06T00:48:44.134Z,0
2018-06-06T00:49:44.124Z,0
2018-06-06T00:50:43.567Z,0
2018-06-06T00:51:43.554Z,0
2018-06-06T00:52:43.811Z,0
2018-06-06T00:53:43.793Z,0
2018-06-06T00:54:44.045Z,0
2018-06-06T00:55:43.505Z,0
2018-06-06T00:56:43.489Z,0
2018-06-06T00:57:43.737Z,0
2018-06-06T00:58:43.764Z,0
2018-06-06T00:59:43.718Z,0
2018-06-06T01:00:43.706Z,0
2018-06-06T01:01:43.950Z,0
2018-06-06T01:02:43.668Z,0
2018-06-06T01:03:43.396Z,0
2018-06-06T01:04:43.647Z,0
2018-06-06T01:05:43.899Z,0
2018-06-06T01:06:43.618Z,0
2018-06-06T01:07:43.613Z,0
2018-06-06T01:08:43.064Z,0
2018-06-06T01:09:43.847Z,0
2018-06-06T01:10:43.564Z,0
2018-06-06T01:11:43.816Z,0
2018-06-06T01:12:43.278Z,0
2018-06-06T01:13:42.999Z,0
2018-06-06T01:14:43.820Z,0
2018-06-06T01:15:43.243Z,0
2018-06-06T01:16:43.220Z,0
2018-06-06T01:17:43.207Z,0
2018-06-06T01:18:43.457Z,0
2018-06-06T01:19:43.181Z,0
2018-06-06T01:20:43.171Z,0
2018-06-06T01:21:43.162Z,0
2018-06-06T01:22:43.677Z,0
2018-06-06T01:23:43.396Z,0
2018-06-06T01:24:43.118Z,0
2018-06-06T01:25:43.149Z,0
2018-06-06T01:26:43.369Z,0
2018-06-06T01:27:43.624Z,0
2018-06-06T01:28:43.327Z,0
2018-06-06T01:29:43.312Z,0
2018-06-06T01:30:43.301Z,0
2018-06-06T01:31:43.289Z,0
2018-06-06T01:32:43.270Z,0
2018-06-06T01:33:42.731Z,0
2018-06-06T01:34:43.245Z,0
2018-06-06T01:35:43.229Z,0
2018-06-06T01:36:42.953Z,0
2018-06-06T01:37:43.201Z,0
2018-06-06T01:38:42.924Z,0
2018-06-06T01:39:43.176Z,0
2018-06-06T01:40:43.172Z,0
2018-06-06T01:41:43.147Z,0
2018-06-06T01:42:42.868Z,0
2018-06-06T01:43:43.126Z,0
2018-06-06T01:44:43.372Z,0
2018-06-06T01:45:42.834Z,0
2018-06-06T01:46:43.079Z,0
2018-06-06T01:47:42.818Z,0
2018-06-06T01:48:43.056Z,0
2018-06-06T01:49:43.039Z,0
2018-06-06T01:50:43.030Z,0
2018-06-06T01:51:42.750Z,0
2018-06-06T01:52:42.999Z,0
2018-06-06T01:53:43.250Z,0
2018-06-06T01:54:43.270Z,0
2018-06-06T01:55:42.695Z,0
2018-06-06T01:56:42.955Z,0
2018-06-06T01:57:42.934Z,0
2018-06-06T01:58:42.668Z,0
2018-06-06T01:59:43.006Z,0
2018-06-06T02:00:42.894Z,0
2018-06-06T02:01:42.611Z,0
2018-06-06T02:02:42.865Z,0
2018-06-06T02:03:42.852Z,0
2018-06-06T02:04:42.837Z,0
2018-06-06T02:05:43.091Z,0
2018-06-06T02:06:43.082Z,0
2018-06-06T02:07:42.795Z,0
2018-06-06T02:08:42.519Z,0
2018-06-06T02:09:42.769Z,0
2018-06-06T02:10:43.018Z,0
2018-06-06T02:11:42.746Z,0
2018-06-06T02:12:42.996Z,0
2018-06-06T02:13:42.986Z,0
2018-06-06T02:14:42.701Z,0
2018-06-06T02:15:42.951Z,0
2018-06-06T02:16:42.948Z,0
2018-06-06T02:17:42.659Z,0
2018-06-06T02:18:42.389Z,0
2018-06-06T02:19:42.375Z,0
2018-06-06T02:20:42.357Z,0
2018-06-06T02:21:42.607Z,0
2018-06-06T02:22:42.850Z,0
2018-06-06T02:23:42.579Z,0
2018-06-06T02:24:42.301Z,0
2018-06-06T02:25:42.290Z,0
2018-06-06T02:26:42.272Z,0
2018-06-06T02:27:42.521Z,0
2018-06-06T02:28:42.504Z,0
2018-06-06T02:29:42.760Z,0
2018-06-06T02:30:42.487Z,0
2018-06-06T02:31:42.472Z,0
2018-06-06T02:32:42.458Z,0
2018-06-06T02:33:42.184Z,0
2018-06-06T02:34:42.169Z,4
2018-06-06T02:35:42.151Z,4
2018-06-06T02:36:42.147Z,0
2018-06-06T02:37:42.665Z,0
2018-06-06T02:38:42.382Z,4
2018-06-06T02:39:42.427Z,4
2018-06-06T02:40:42.351Z,0
2018-06-06T02:41:42.340Z,4
2018-06-06T02:42:42.324Z,4
2018-06-06T02:43:42.578Z,4
2018-06-06T02:44:42.774Z,8
2018-06-06T02:45:42.282Z,8
2018-06-06T02:46:42.012Z,4
2018-06-06T02:47:42.270Z,8
2018-06-06T02:48:42.520Z,8
2018-06-06T02:49:42.235Z,12
2018-06-06T02:50:42.218Z,12
2018-06-06T02:51:42.197Z,12
2018-06-06T02:52:42.447Z,16
2018-06-06T02:53:41.645Z,16
2018-06-06T02:54:42.502Z,20
2018-06-06T02:55:42.412Z,24
2018-06-06T02:56:41.867Z,24
2018-06-06T02:57:42.387Z,24
2018-06-06T02:58:42.367Z,28
2018-06-06T02:59:42.365Z,32
2018-06-06T03:00:41.814Z,36
2018-06-06T03:01:42.069Z,40
2018-06-06T03:02:41.788Z,44
2018-06-06T03:03:41.515Z,48
2018-06-06T03:04:42.079Z,52
2018-06-06T03:05:42.273Z,60
2018-06-06T03:06:41.998Z,68
2018-06-06T03:07:41.979Z,72
2018-06-06T03:08:41.703Z,80
2018-06-06T03:09:42.218Z,84
2018-06-06T03:10:41.938Z,92
2018-06-06T03:11:42.188Z,100
2018-06-06T03:12:42.174Z,108
2018-06-06T03:13:41.905Z,116
2018-06-06T03:14:41.891Z,124
2018-06-06T03:15:42.132Z,136
2018-06-06T03:16:41.942Z,144
2018-06-06T03:17:41.836Z,152
2018-06-06T03:18:41.857Z,164
2018-06-06T03:19:41.804Z,176
2018-06-06T03:20:42.063Z,188
2018-06-06T03:21:41.782Z,200
2018-06-06T03:22:41.779Z,212
2018-06-06T03:23:41.762Z,228
2018-06-06T03:24:41.478Z,240
2018-06-06T03:25:41.730Z,252
2018-06-06T03:26:41.991Z,264
2018-06-06T03:27:41.698Z,276
2018-06-06T03:28:41.948Z,292
2018-06-06T03:29:41.934Z,304
2018-06-06T03:30:41.401Z,320
2018-06-06T03:31:41.384Z,336
2018-06-06T03:32:41.631Z,348
2018-06-06T03:33:41.890Z,364
2018-06-06T03:34:41.596Z,380
2018-06-06T03:35:41.585Z,396
2018-06-06T03:36:41.312Z,412
2018-06-06T03:37:41.559Z,428
2018-06-06T03:38:41.555Z,444
2018-06-06T03:39:41.794Z,460
2018-06-06T03:40:41.254Z,476
2018-06-06T03:41:41.777Z,492
2018-06-06T03:42:41.235Z,508
2018-06-06T03:43:41.480Z,528
2018-06-06T03:44:41.724Z,544
2018-06-06T03:45:41.450Z,556
2018-06-06T03:46:41.438Z,576
2018-06-06T03:47:41.422Z,592
2018-06-06T03:48:41.403Z,608
2018-06-06T03:49:41.389Z,624
2018-06-06T03:50:41.373Z,640
2018-06-06T03:51:41.383Z,656
2018-06-06T03:52:41.619Z,676
2018-06-06T03:53:41.339Z,688
2018-06-06T03:54:41.323Z,708
2018-06-06T03:55:40.787Z,724
2018-06-06T03:56:41.563Z,740
2018-06-06T03:57:41.282Z,760
2018-06-06T03:58:41.270Z,780
2018-06-06T03:59:41.532Z,792
2018-06-06T04:00:41.515Z,808
2018-06-06T04:01:40.962Z,828
2018-06-06T04:02:40.949Z,840
2018-06-06T04:03:41.200Z,856
2018-06-06T04:04:41.182Z,876
2018-06-06T04:05:41.226Z,892
2018-06-06T04:06:41.164Z,908
2018-06-06T04:07:41.140Z,924
2018-06-06T04:08:41.393Z,940
2018-06-06T04:09:40.857Z,952
2018-06-06T04:10:40.590Z,972
2018-06-06T04:11:41.354Z,984
2018-06-06T04:12:40.818Z,1000
2018-06-06T04:13:40.796Z,1012
2018-06-06T04:14:40.789Z,1028
2018-06-06T04:15:41.312Z,1040
2018-06-06T04:16:41.021Z,1056
2018-06-06T04:17:40.741Z,1072
2018-06-06T04:18:40.994Z,1084
2018-06-06T04:19:41.250Z,1096
2018-06-06T04:20:41.237Z,1104
2018-06-06T04:21:40.948Z,1120
2018-06-06T04:22:40.980Z,1128
2018-06-06T04:23:40.402Z,1140
2018-06-06T04:24:41.173Z,1148
2018-06-06T04:25:40.901Z,1160
2018-06-06T04:26:40.625Z,1168
2018-06-06T04:27:40.875Z,1180
2018-06-06T04:28:40.592Z,1192
2018-06-06T04:29:40.843Z,1204
2018-06-06T04:30:40.828Z,1212
2018-06-06T04:31:40.567Z,1224
2018-06-06T04:32:40.812Z,1232
2018-06-06T04:33:40.672Z,1244
2018-06-06T04:34:40.255Z,1256
2018-06-06T04:35:40.761Z,1272
2018-06-06T04:36:40.491Z,1280
2018-06-06T04:37:40.998Z,1296
2018-06-06T04:38:40.727Z,1304
2018-06-06T04:39:40.439Z,1316
2018-06-06T04:40:40.704Z,1328
2018-06-06T04:41:40.149Z,1340
2018-06-06T04:42:40.933Z,1352
2018-06-06T04:43:40.925Z,1360
2018-06-06T04:44:40.641Z,1368
2018-06-06T04:45:40.632Z,1376
2018-06-06T04:46:40.086Z,1388
2018-06-06T04:47:40.344Z,1396
2018-06-06T04:48:40.321Z,1404
2018-06-06T04:49:40.844Z,1416
2018-06-06T04:50:40.558Z,1424
2018-06-06T04:51:40.549Z,1432
2018-06-06T04:52:40.541Z,1444
2018-06-06T04:53:40.521Z,1456
2018-06-06T04:54:40.506Z,1468
2018-06-06T04:55:40.237Z,1476
2018-06-06T04:56:40.222Z,1484
2018-06-06T04:57:40.465Z,1492
2018-06-06T04:58:40.725Z,1500
2018-06-06T04:59:40.444Z,1508
2018-06-06T05:00:40.183Z,1520
2018-06-06T05:01:40.687Z,1532
2018-06-06T05:02:40.404Z,1540
2018-06-06T05:03:40.660Z,1548
2018-06-06T05:04:40.645Z,1560
2018-06-06T05:05:40.179Z,1568
2018-06-06T05:06:40.620Z,1576
2018-06-06T05:07:40.337Z,1588
2018-06-06T05:08:40.329Z,1600
2018-06-06T05:09:40.047Z,1608
2018-06-06T05:10:40.043Z,1620
2018-06-06T05:11:40.333Z,1632
2018-06-06T05:12:40.026Z,1644
2018-06-06T05:13:40.526Z,1656
2018-06-06T05:14:39.989Z,1664
2018-06-06T05:15:39.710Z,1672
2018-06-06T05:16:40.232Z,1680
2018-06-06T05:17:39.951Z,1684
2018-06-06T05:18:40.205Z,1696
2018-06-06T05:19:40.453Z,1708
2018-06-06T05:20:39.909Z,1716
2018-06-06T05:21:39.889Z,1724
2018-06-06T05:22:39.889Z,1728
2018-06-06T05:23:39.869Z,1740
2018-06-06T05:24:39.853Z,1748
2018-06-06T05:25:39.583Z,1748
2018-06-06T05:26:39.980Z,1760
2018-06-06T05:27:39.824Z,1764
2018-06-06T05:28:40.078Z,1776
2018-06-06T05:29:40.065Z,1780
2018-06-06T05:30:40.313Z,1788
2018-06-06T05:31:39.777Z,1796
2018-06-06T05:32:40.178Z,1808
2018-06-06T05:33:40.013Z,1816
2018-06-06T05:34:39.997Z,1820
2018-06-06T05:35:39.722Z,1836
2018-06-06T05:36:39.979Z,1840
2018-06-06T05:37:39.961Z,1852
2018-06-06T05:38:39.680Z,1856
2018-06-06T05:39:40.031Z,1864
2018-06-06T05:40:39.414Z,1876
2018-06-06T05:41:39.916Z,1892
2018-06-06T05:42:40.165Z,1904
2018-06-06T05:43:39.626Z,1908
2018-06-06T05:44:40.146Z,1920
2018-06-06T05:45:40.126Z,1932
2018-06-06T05:46:39.851Z,1940
2018-06-06T05:47:39.580Z,1940
2018-06-06T05:48:39.566Z,1960
2018-06-06T05:49:39.549Z,1956
2018-06-06T05:50:39.802Z,1964
2018-06-06T05:51:40.106Z,1980
2018-06-06T05:52:39.250Z,1988
2018-06-06T05:53:40.035Z,2000
2018-06-06T05:54:39.757Z,2004
2018-06-06T05:55:39.750Z,2012
2018-06-06T05:56:39.472Z,2028
2018-06-06T05:57:39.458Z,2032
2018-06-06T05:58:39.714Z,2044
2018-06-06T05:59:39.441Z,2052
2018-06-06T06:00:39.954Z,2060
2018-06-06T06:01:39.451Z,2072
2018-06-06T06:02:40.169Z,2080
2018-06-06T06:03:39.871Z,2096
2018-06-06T06:04:39.646Z,2116
2018-06-06T06:05:39.888Z,2128
2018-06-06T06:06:39.890Z,2136
2018-06-06T06:07:39.868Z,2144
2018-06-06T06:08:39.329Z,2164
2018-06-06T06:09:39.852Z,2176
2018-06-06T06:10:39.572Z,2184
2018-06-06T06:11:39.556Z,2200
2018-06-06T06:12:39.274Z,2212
2018-06-06T06:13:39.003Z,2264
2018-06-06T06:14:39.527Z,6508
2018-06-06T06:15:39.514Z,9780
2018-06-06T06:16:39.496Z,4728
2018-06-06T06:17:39.752Z,2308
2018-06-06T06:18:39.217Z,2376
2018-06-06T06:19:39.199Z,4004
2018-06-06T06:20:39.188Z,7856
2018-06-06T06:21:39.444Z,6504
2018-06-06T06:22:39.163Z,2528
2018-06-06T06:23:39.437Z,2312
2018-06-06T06:24:39.409Z,2320
2018-06-06T06:25:39.396Z,2328
2018-06-06T06:26:39.395Z,2340
2018-06-06T06:27:39.381Z,2360
2018-06-06T06:28:39.647Z,2368
2018-06-06T06:29:39.373Z,2372
2018-06-06T06:30:39.088Z,2384
2018-06-06T06:31:39.616Z,2388
2018-06-06T06:32:39.638Z,2400
2018-06-06T06:33:39.515Z,2416
2018-06-06T06:34:39.303Z,2436
2018-06-06T06:35:39.295Z,2452
2018-06-06T06:36:39.033Z,2452
2018-06-06T06:37:39.273Z,2464
2018-06-06T06:38:39.538Z,2480
2018-06-06T06:39:39.260Z,2488
2018-06-06T06:40:39.246Z,2504
2018-06-06T06:41:39.228Z,2516
2018-06-06T06:42:39.219Z,2532
2018-06-06T06:43:39.215Z,3100
2018-06-06T06:44:39.201Z,10832
2018-06-06T06:45:39.660Z,19232
2018-06-06T06:46:38.913Z,26112
2018-06-06T06:47:39.178Z,28992
2018-06-06T06:48:39.431Z,28416
2018-06-06T06:49:39.428Z,26752
2018-06-06T06:50:39.151Z,25632
2018-06-06T06:51:39.400Z,24032
2018-06-06T06:52:39.517Z,16512
2018-06-06T06:53:39.127Z,7740
2018-06-06T06:54:39.121Z,3008
2018-06-06T06:55:39.109Z,2880
2018-06-06T06:56:39.103Z,2848
2018-06-06T06:57:39.093Z,2872
2018-06-06T06:58:39.085Z,2880
2018-06-06T06:59:39.334Z,2900
2018-06-06T07:00:38.800Z,2908
2018-06-06T07:01:39.315Z,2924
2018-06-06T07:02:39.308Z,2952
2018-06-06T07:03:39.041Z,2984
2018-06-06T07:04:39.020Z,3016
2018-06-06T07:05:38.753Z,3052
2018-06-06T07:06:39.056Z,3072
2018-06-06T07:07:38.741Z,3092
2018-06-06T07:08:38.738Z,3164
2018-06-06T07:09:38.988Z,8168
2018-06-06T07:10:38.975Z,16608
2018-06-06T07:11:38.974Z,24512
2018-06-06T07:12:39.015Z,31392
2018-06-06T07:13:38.973Z,33280
2018-06-06T07:14:38.955Z,32256
2018-06-06T07:15:38.940Z,32288
2018-06-06T07:16:39.198Z,32896
2018-06-06T07:17:39.344Z,32864
2018-06-06T07:18:38.932Z,32512
2018-06-06T07:19:38.920Z,34208
2018-06-06T07:20:38.921Z,38528
2018-06-06T07:21:38.916Z,41664
2018-06-06T07:22:38.381Z,42048
2018-06-06T07:23:38.649Z,40832
2018-06-06T07:24:38.905Z,39968
2018-06-06T07:25:38.636Z,39744
2018-06-06T07:26:38.367Z,39584
2018-06-06T07:27:38.899Z,40640
2018-06-06T07:28:38.633Z,43680
2018-06-06T07:29:38.934Z,46368
2018-06-06T07:30:38.615Z,45312
2018-06-06T07:31:38.903Z,41920
2018-06-06T07:32:38.876Z,40384
2018-06-06T07:33:38.881Z,40320
2018-06-06T07:34:38.908Z,40608
2018-06-06T07:35:38.606Z,39776
2018-06-06T07:36:38.605Z,40320
2018-06-06T07:37:38.866Z,43552
2018-06-06T07:38:38.607Z,44672
2018-06-06T07:39:39.132Z,44064
2018-06-06T07:40:39.137Z,43456
2018-06-06T07:41:39.118Z,44928
2018-06-06T07:42:38.866Z,46144
2018-06-06T07:43:38.867Z,44544
2018-06-06T07:44:38.594Z,42272
2018-06-06T07:45:39.203Z,41344
2018-06-06T07:46:38.595Z,42016
2018-06-06T07:47:39.129Z,41536
2018-06-06T07:48:38.587Z,41664
2018-06-06T07:49:38.868Z,43328
2018-06-06T07:50:38.856Z,46400
2018-06-06T07:51:38.858Z,48544
2018-06-06T07:52:39.258Z,47552
2018-06-06T07:53:38.858Z,45056
2018-06-06T07:54:38.860Z,43936
2018-06-06T07:55:38.855Z,45376
2018-06-06T07:56:38.863Z,47680
2018-06-06T07:57:38.890Z,48736
2018-06-06T07:58:39.119Z,49120
2018-06-06T07:59:38.592Z,49888
2018-06-06T08:00:38.869Z,49696
2018-06-06T08:01:38.867Z,49600
2018-06-06T08:02:38.871Z,49472
2018-06-06T08:03:39.130Z,50752
2018-06-06T08:04:38.868Z,52416
2018-06-06T08:05:38.602Z,52704
2018-06-06T08:06:38.602Z,48800
2018-06-06T08:07:39.135Z,44864
2018-06-06T08:08:38.877Z,43968
2018-06-06T08:09:38.881Z,47392
2018-06-06T08:10:38.873Z,51168
2018-06-06T08:11:38.879Z,55328
2018-06-06T08:12:38.950Z,56768
2018-06-06T08:13:38.622Z,56832
2018-06-06T08:14:38.881Z,55520
2018-06-06T08:15:38.622Z,52256
2018-06-06T08:16:39.167Z,48256
2018-06-06T08:17:38.632Z,45856
2018-06-06T08:18:38.933Z,45760
2018-06-06T08:19:38.893Z,48192
2018-06-06T08:20:38.642Z,52000
2018-06-06T08:21:39.439Z,55904
2018-06-06T08:22:39.168Z,58400
2018-06-06T08:23:38.384Z,58688
2018-06-06T08:24:38.649Z,56416
2018-06-06T08:25:38.912Z,51456
2018-06-06T08:26:38.922Z,48704
2018-06-06T08:27:38.665Z,49664
2018-06-06T08:28:38.938Z,55328
2018-06-06T08:29:39.195Z,60896
2018-06-06T08:30:39.209Z,56032
2018-06-06T08:31:39.197Z,50400
2018-06-06T08:32:38.941Z,16624
2018-06-06T08:33:38.420Z,12748
2018-06-06T08:34:38.967Z,54144
2018-06-06T08:35:38.760Z,14944
2018-06-06T08:36:38.954Z,6056
2018-06-06T08:37:38.949Z,9588
2018-06-06T08:38:38.697Z,9028
2018-06-06T08:39:38.699Z,13204
2018-06-06T08:40:39.225Z,13460
2018-06-06T08:41:38.699Z,21184
2018-06-06T08:42:38.970Z,21472
2018-06-06T08:43:38.709Z,26752
2018-06-06T08:44:38.780Z,10204
2018-06-06T08:45:39.177Z,10096
2018-06-06T08:46:39.245Z,15320
2018-06-06T08:47:39.245Z,7616
2018-06-06T08:48:38.952Z,10576
2018-06-06T08:49:38.971Z,7460
2018-06-06T08:50:38.453Z,13716
2018-06-06T08:51:38.716Z,4192
2018-06-06T08:52:39.234Z,18272
2018-06-06T08:53:38.707Z,12016
2018-06-06T08:54:38.704Z,3232
2018-06-06T08:55:38.980Z,5536
2018-06-06T08:56:39.059Z,4980
2018-06-06T08:57:38.972Z,7328
2018-06-06T08:58:39.237Z,7136
2018-06-06T08:59:38.704Z,5944
2018-06-06T09:00:38.701Z,5780
2018-06-06T09:01:39.004Z,7752
2018-06-06T09:02:38.576Z,8588
2018-06-06T09:03:39.085Z,13896
2018-06-06T09:04:38.699Z,56928
2018-06-06T09:05:39.221Z,68064
2018-06-06T09:06:38.949Z,76128
2018-06-06T09:07:38.948Z,80416
2018-06-06T09:08:39.224Z,80576
2018-06-06T09:09:38.690Z,77120
2018-06-06T09:10:38.944Z,72896
2018-06-06T09:11:38.946Z,67328
2018-06-06T09:12:39.217Z,64800
2018-06-06T09:13:38.947Z,64992
2018-06-06T09:14:38.680Z,69216
2018-06-06T09:15:39.063Z,74272
2018-06-06T09:16:39.205Z,78304
2018-06-06T09:17:39.204Z,68640
2018-06-06T09:18:39.220Z,71552
2018-06-06T09:19:38.953Z,67392
2018-06-06T09:20:38.957Z,69344
2018-06-06T09:21:39.222Z,40608
2018-06-06T09:22:39.270Z,30336
2018-06-06T09:23:38.962Z,27104
2018-06-06T09:24:39.217Z,33280
2018-06-06T09:25:38.697Z,13720
2018-06-06T09:26:38.964Z,16960
2018-06-06T09:27:38.968Z,7920
2018-06-06T09:28:38.972Z,31488
2018-06-06T09:29:38.968Z,13856
2018-06-06T09:30:38.968Z,11524
2018-06-06T09:31:38.448Z,23648
2018-06-06T09:32:38.709Z,7192
2018-06-06T09:33:38.960Z,18624
2018-06-06T09:34:38.709Z,9884
2018-06-06T09:35:38.706Z,31200
2018-06-06T09:36:39.233Z,48448
2018-06-06T09:37:38.705Z,18624
2018-06-06T09:38:38.700Z,37120
2018-06-06T09:39:39.232Z,26432
2018-06-06T09:40:38.971Z,11200
2018-06-06T09:41:39.227Z,7812
2018-06-06T09:42:38.969Z,6948
2018-06-06T09:43:38.697Z,6604
2018-06-06T09:44:38.958Z,9180
2018-06-06T09:45:38.967Z,7324
2018-06-06T09:46:38.962Z,8288
2018-06-06T09:47:38.956Z,17076
2018-06-06T09:48:39.235Z,22720
2018-06-06T09:49:39.218Z,15704
2018-06-06T09:50:38.963Z,13116
2018-06-06T09:51:38.961Z,17120
2018-06-06T09:52:38.948Z,7476
2018-06-06T09:53:38.960Z,14156
2018-06-06T09:54:38.680Z,11764
2018-06-06T09:55:39.213Z,16476
2018-06-06T09:56:39.202Z,8524
2018-06-06T09:57:38.941Z,7916
2018-06-06T09:58:38.725Z,6872
2018-06-06T09:59:39.202Z,9684
2018-06-06T10:00:38.936Z,8396
2018-06-06T10:01:38.664Z,11956
2018-06-06T10:02:39.201Z,13956
2018-06-06T10:03:38.666Z,7828
2018-06-06T10:04:38.934Z,18880
2018-06-06T10:05:38.924Z,21216
2018-06-06T10:06:38.649Z,18912
2018-06-06T10:07:38.914Z,9648
2018-06-06T10:08:38.944Z,8760
2018-06-06T10:09:39.176Z,7316
2018-06-06T10:10:38.639Z,7816
2018-06-06T10:11:39.165Z,12732
2018-06-06T10:12:38.629Z,15752
2018-06-06T10:13:38.627Z,11824
2018-06-06T10:14:38.890Z,26432
2018-06-06T10:15:38.633Z,5764
2018-06-06T10:16:39.194Z,46080
2018-06-06T10:17:38.876Z,67776
2018-06-06T10:18:38.880Z,80512
2018-06-06T10:19:38.613Z,81120
2018-06-06T10:20:38.611Z,79296
2018-06-06T10:21:38.889Z,78976
2018-06-06T10:22:39.073Z,78752
2018-06-06T10:23:38.356Z,79680
2018-06-06T10:24:39.146Z,81152
2018-06-06T10:25:38.879Z,83584
2018-06-06T10:26:38.616Z,86688
2018-06-06T10:27:38.884Z,86976
2018-06-06T10:28:38.874Z,86720
2018-06-06T10:29:38.882Z,86272
2018-06-06T10:30:39.148Z,83392
2018-06-06T10:31:38.885Z,82112
2018-06-06T10:32:39.156Z,83424
2018-06-06T10:33:39.163Z,84064
2018-06-06T10:34:38.632Z,87904
2018-06-06T10:35:39.167Z,91712
2018-06-06T10:36:38.898Z,94848
2018-06-06T10:37:38.643Z,97344
2018-06-06T10:38:38.648Z,99968
2018-06-06T10:39:38.917Z,101632
2018-06-06T10:40:39.187Z,98912
2018-06-06T10:41:38.926Z,95584
2018-06-06T10:42:38.668Z,92672
2018-06-06T10:43:38.934Z,91424
2018-06-06T10:44:38.682Z,93856
2018-06-06T10:45:38.887Z,95136
2018-06-06T10:46:38.963Z,96896
2018-06-06T10:47:38.692Z,99360
2018-06-06T10:48:39.230Z,98560
2018-06-06T10:49:38.975Z,95392
2018-06-06T10:50:39.244Z,91520
2018-06-06T10:51:38.983Z,91424
2018-06-06T10:52:38.990Z,91456
2018-06-06T10:53:39.002Z,90656
2018-06-06T10:54:39.026Z,92384
2018-06-06T10:55:39.275Z,94112
2018-06-06T10:56:38.503Z,97472
2018-06-06T10:57:39.309Z,96000
2018-06-06T10:58:39.340Z,94688
2018-06-06T10:59:38.903Z,91840
2018-06-06T11:00:38.791Z,86208
2018-06-06T11:01:39.325Z,84160
2018-06-06T11:02:39.329Z,83200
2018-06-06T11:03:39.068Z,83104
2018-06-06T11:04:38.820Z,86432
2018-06-06T11:05:39.357Z,91264
2018-06-06T11:06:39.100Z,96800
2018-06-06T11:07:39.368Z,97184
2018-06-06T11:08:39.140Z,98656
2018-06-06T11:09:38.859Z,102784
2018-06-06T11:10:38.860Z,105760
2018-06-06T11:11:39.446Z,107840
2018-06-06T11:12:39.403Z,107424
2018-06-06T11:13:38.907Z,105952
2018-06-06T11:14:39.162Z,101216
2018-06-06T11:15:39.176Z,99744
2018-06-06T11:16:39.679Z,93632
2018-06-06T11:17:39.483Z,94176
2018-06-06T11:18:39.451Z,90528
2018-06-06T11:19:39.206Z,88512
2018-06-06T11:20:38.949Z,88736
2018-06-06T11:21:39.220Z,92672
2018-06-06T11:22:39.497Z,97504
2018-06-06T11:23:39.231Z,95776
2018-06-06T11:24:39.241Z,97888
2018-06-06T11:25:39.257Z,99904
2018-06-06T11:26:39.264Z,99360
2018-06-06T11:27:39.273Z,104000
2018-06-06T11:28:39.274Z,103136
2018-06-06T11:29:39.289Z,99904
2018-06-06T11:30:39.557Z,93248
2018-06-06T11:31:39.582Z,85696
2018-06-06T11:32:39.054Z,85888
2018-06-06T11:33:39.318Z,84608
2018-06-06T11:34:39.160Z,84064
2018-06-06T11:35:39.336Z,82688
2018-06-06T11:36:39.616Z,82592
2018-06-06T11:37:39.102Z,82656
2018-06-06T11:38:39.368Z,81152
2018-06-06T11:39:39.583Z,79296
2018-06-06T11:40:39.391Z,80608
2018-06-06T11:41:39.394Z,85824
2018-06-06T11:42:39.407Z,92992
2018-06-06T11:43:39.142Z,98080
2018-06-06T11:44:39.429Z,102848
2018-06-06T11:45:39.433Z,104352
2018-06-06T11:46:39.432Z,102976
2018-06-06T11:47:39.713Z,97152
2018-06-06T11:48:39.453Z,92896
2018-06-06T11:49:39.723Z,89088
2018-06-06T11:50:39.210Z,87936
2018-06-06T11:51:39.224Z,88256
2018-06-06T11:52:39.231Z,87264
2018-06-06T11:53:39.493Z,87552
2018-06-06T11:54:39.253Z,92032
2018-06-06T11:55:39.580Z,97568
2018-06-06T11:56:39.521Z,105248
2018-06-06T11:57:39.801Z,113088
2018-06-06T11:58:39.808Z,107584
2018-06-06T11:59:39.553Z,104832
2018-06-06T12:00:39.569Z,98272
2018-06-06T12:01:39.651Z,93056
2018-06-06T12:02:39.583Z,86432
2018-06-06T12:03:39.597Z,83936
2018-06-06T12:04:39.600Z,83328
2018-06-06T12:05:39.864Z,88160
2018-06-06T12:06:39.621Z,92576
2018-06-06T12:07:39.099Z,94816
2018-06-06T12:08:39.894Z,97696
2018-06-06T12:09:39.117Z,98496
2018-06-06T12:10:39.660Z,97952
2018-06-06T12:11:39.402Z,94304
2018-06-06T12:12:39.933Z,89728
2018-06-06T12:13:39.685Z,84512
2018-06-06T12:14:39.699Z,79520
2018-06-06T12:15:39.973Z,77216
2018-06-06T12:16:39.712Z,76832
2018-06-06T12:17:40.147Z,79168
2018-06-06T12:18:39.723Z,84544
2018-06-06T12:19:39.953Z,88192
2018-06-06T12:20:39.482Z,91360
2018-06-06T12:21:40.018Z,91680
2018-06-06T12:22:40.027Z,91072
2018-06-06T12:23:39.522Z,89888
2018-06-06T12:24:39.781Z,90464
2018-06-06T12:25:39.795Z,89792
2018-06-06T12:26:39.803Z,90496
2018-06-06T12:27:39.548Z,92736
2018-06-06T12:28:39.818Z,93024
2018-06-06T12:29:39.864Z,92992
2018-06-06T12:30:39.854Z,93408
2018-06-06T12:31:39.586Z,90240
2018-06-06T12:32:40.118Z,86240
2018-06-06T12:33:39.601Z,82240
2018-06-06T12:34:39.613Z,82560
2018-06-06T12:35:39.637Z,82528
2018-06-06T12:36:39.629Z,82816
2018-06-06T12:37:40.365Z,81824
2018-06-06T12:38:39.989Z,81344
2018-06-06T12:39:39.656Z,80864
2018-06-06T12:40:39.931Z,80864
2018-06-06T12:41:40.208Z,83552
2018-06-06T12:42:39.960Z,89984
2018-06-06T12:43:40.229Z,90976
2018-06-06T12:44:40.231Z,92256
2018-06-06T12:45:40.673Z,93600
2018-06-06T12:46:39.990Z,97056
2018-06-06T12:47:40.268Z,99232
2018-06-06T12:48:40.008Z,96512
2018-06-06T12:49:40.016Z,92288
2018-06-06T12:50:40.295Z,87616
2018-06-06T12:51:40.308Z,83648
2018-06-06T12:52:40.050Z,81024
2018-06-06T12:53:39.797Z,78944
2018-06-06T12:54:40.065Z,81024
2018-06-06T12:55:40.077Z,81728
2018-06-06T12:56:40.475Z,83680
2018-06-06T12:57:40.098Z,87168
2018-06-06T12:58:40.104Z,88928
2018-06-06T12:59:40.121Z,89056
2018-06-06T13:00:40.399Z,87680
2018-06-06T13:01:40.402Z,88768
2018-06-06T13:02:39.882Z,90848
2018-06-06T13:03:40.166Z,91968
2018-06-06T13:04:40.163Z,91520
2018-06-06T13:05:40.435Z,89440
2018-06-06T13:06:40.195Z,89760
2018-06-06T13:07:40.462Z,91520
2018-06-06T13:08:39.946Z,94912
2018-06-06T13:09:40.304Z,99008
2018-06-06T13:10:40.238Z,101152
2018-06-06T13:11:40.256Z,102368
2018-06-06T13:12:40.445Z,97920
2018-06-06T13:13:39.998Z,91872
2018-06-06T13:14:40.266Z,87136
2018-06-06T13:15:39.752Z,86560
2018-06-06T13:16:40.547Z,82592
2018-06-06T13:17:40.034Z,79808
2018-06-06T13:18:40.045Z,79360
2018-06-06T13:19:40.056Z,80800
2018-06-06T13:20:40.059Z,81600
2018-06-06T13:21:40.596Z,82368
2018-06-06T13:22:40.240Z,81344
2018-06-06T13:23:40.354Z,79648
2018-06-06T13:24:40.358Z,78144
2018-06-06T13:25:40.113Z,75680
2018-06-06T13:26:40.646Z,74272